Time;durP1;ratioP1;P1;durP2;ratioP2;P2;SDS_P1;SDS_P2;PMS_P1;PMS_P2;Temp;Humidity;BMP_temperature;BMP_pressure;BME280_temperature;BME280_humidity;BME280_pressure;Samples;Min_cycle;Max_cycle;Signal;HPM_P1;HPM_P2
2023/08/01 00:00:07;;;;;;;8.02;4.10;;;18.10;99.20;;;;;;5076345;28;20032;-78
2023/08/01 00:02:33;;;;;;;7.30;4.15;;;18.10;99.20;;;;;;5076322;28;20029;-78
2023/08/01 00:04:58;;;;;;;7.65;4.43;;;18.10;99.20;;;;;;5058627;28;20035;-78
2023/08/01 00:07:28;;;;;;;8.60;4.43;;;18.10;99.20;;;;;;5076213;28;20040;-78
2023/08/01 00:09:54;;;;;;;7.40;4.13;;;18.10;99.10;;;;;;5075216;28;20057;-78
2023/08/01 00:12:20;;;;;;;8.52;4.28;;;18.10;99.10;;;;;;5075187;28;20033;-78
2023/08/01 00:14:45;;;;;;;10.25;4.72;;;18.00;99.10;;;;;;5076103;28;20491;-78
2023/08/01 00:17:11;;;;;;;6.85;4.22;;;18.00;99.20;;;;;;5058490;28;20036;-78
2023/08/01 00:19:37;;;;;;;9.07;4.72;;;18.00;99.30;;;;;;5058382;28;20025;-78
2023/08/01 00:22:03;;;;;;;9.15;5.30;;;18.00;99.30;;;;;;5058266;28;20031;-78
2023/08/01 00:24:28;;;;;;;10.38;5.60;;;18.00;99.20;;;;;;5075866;28;20056;-78
2023/08/01 00:26:55;;;;;;;10.98;5.22;;;18.00;99.20;;;;;;5058257;28;20032;-78
2023/08/01 00:29:21;;;;;;;11.82;5.57;;;18.00;99.20;;;;;;5074798;28;20025;-78
2023/08/01 00:31:47;;;;;;;9.00;5.20;;;18.00;99.30;;;;;;5074740;28;20036;-77
2023/08/01 00:34:13;;;;;;;10.18;5.25;;;18.00;99.20;;;;;;5074548;28;20053;-78
2023/08/01 00:36:38;;;;;;;9.80;5.25;;;18.00;99.20;;;;;;5041559;28;20153;-78
2023/08/01 00:39:04;;;;;;;10.90;5.18;;;18.10;99.20;;;;;;5075612;28;20028;-78
2023/08/01 00:41:31;;;;;;;10.18;4.72;;;18.10;99.20;;;;;;5057970;28;20043;-78
2023/08/01 00:43:56;;;;;;;13.15;5.43;;;18.10;99.20;;;;;;5057926;28;20423;-78
2023/08/01 00:46:22;;;;;;;12.18;5.22;;;18.10;99.10;;;;;;5075428;28;20055;-78
2023/08/01 00:48:48;;;;;;;9.85;4.95;;;18.20;99.10;;;;;;5040224;28;20024;-78
2023/08/01 00:51:15;;;;;;;10.40;4.97;;;18.20;99.00;;;;;;5057819;28;20035;-78
2023/08/01 00:53:40;;;;;;;8.57;4.40;;;18.20;98.90;;;;;;5075363;28;20077;-78
2023/08/01 00:56:06;;;;;;;7.85;4.80;;;18.20;98.90;;;;;;5074416;28;20033;-78
2023/08/01 00:58:31;;;;;;;8.88;5.03;;;18.20;98.90;;;;;;5075265;28;20021;-77
2023/08/01 01:00:59;;;;;;;9.50;5.05;;;18.20;98.90;;;;;;5057536;28;20033;-78
2023/08/01 01:03:25;;;;;;;8.70;4.20;;;18.20;98.80;;;;;;5074351;28;20033;-78
2023/08/01 01:06:10;;;;;;;8.23;4.57;;;18.20;98.70;;;;;;5074087;28;20035;-78
2023/08/01 01:08:36;;;;;;;8.27;5.20;;;18.20;98.60;;;;;;5075120;28;20047;-78
2023/08/01 01:11:01;;;;;;;9.48;5.30;;;18.10;98.60;;;;;;5073918;28;20128;-77
2023/08/01 01:13:27;;;;;;;11.48;5.72;;;18.10;98.50;;;;;;5074012;28;20048;-78
2023/08/01 01:15:52;;;;;;;8.98;4.75;;;18.00;98.60;;;;;;5073968;28;20036;-78
2023/08/01 01:18:18;;;;;;;11.50;5.63;;;18.00;98.70;;;;;;5073944;28;20052;-77
2023/08/01 01:20:43;;;;;;;11.10;6.00;;;18.00;98.80;;;;;;5073915;28;20043;-77
2023/08/01 01:23:10;;;;;;;10.40;5.10;;;17.90;98.70;;;;;;5073797;28;20082;-78
2023/08/01 01:25:38;;;;;;;12.85;6.40;;;17.90;98.80;;;;;;5074849;28;20017;-78
2023/08/01 01:28:05;;;;;;;12.80;5.90;;;17.90;98.80;;;;;;5073783;28;20037;-78
2023/08/01 01:30:36;;;;;;;11.25;5.97;;;17.90;98.80;;;;;;5073631;28;20075;-78
2023/08/01 01:33:03;;;;;;;9.70;5.43;;;17.80;98.80;;;;;;5073583;28;20017;-78
2023/08/01 01:35:29;;;;;;;9.32;5.50;;;17.80;98.90;;;;;;5073470;28;20052;-78
2023/08/01 01:37:55;;;;;;;9.52;5.40;;;17.80;98.80;;;;;;5074494;28;20021;-78
2023/08/01 01:40:20;;;;;;;11.32;5.85;;;17.80;98.90;;;;;;5073476;28;20040;-78
2023/08/01 01:42:46;;;;;;;10.50;5.53;;;17.80;98.80;;;;;;5073464;28;20096;-78
2023/08/01 01:45:12;;;;;;;13.68;6.88;;;17.80;98.80;;;;;;5074329;28;20026;-78
2023/08/01 01:47:37;;;;;;;10.73;5.70;;;17.80;98.80;;;;;;5040220;28;20044;-78
2023/08/01 01:50:05;;;;;;;10.88;5.38;;;17.80;98.80;;;;;;5040075;28;20028;-77
2023/08/01 01:52:30;;;;;;;10.25;5.45;;;17.80;98.80;;;;;;5056998;28;20021;-77
2023/08/01 01:54:56;;;;;;;10.13;5.07;;;17.70;98.70;;;;;;5056567;28;20170;-78
2023/08/01 01:57:22;;;;;;;11.35;5.50;;;17.70;98.70;;;;;;5056452;28;20029;-78
2023/08/01 01:59:47;;;;;;;10.55;5.20;;;17.70;99.00;;;;;;5073845;28;20037;-78
2023/08/01 02:02:14;;;;;;;9.43;5.35;;;17.70;99.10;;;;;;5056480;28;20036;-76
2023/08/01 02:04:39;;;;;;;10.13;5.57;;;17.60;98.70;;;;;;5073995;28;20021;-78
2023/08/01 02:07:05;;;;;;;9.70;4.88;;;17.60;98.70;;;;;;5056346;28;20043;-78
2023/08/01 02:09:31;;;;;;;11.18;4.72;;;17.50;98.70;;;;;;5056396;28;20032;-78
2023/08/01 02:11:56;;;;;;;10.60;5.35;;;17.50;98.80;;;;;;5073751;28;20037;-78
2023/08/01 02:14:22;;;;;;;13.75;5.13;;;17.50;98.80;;;;;;5039739;28;20036;-78
2023/08/01 02:16:48;;;;;;;11.35;5.03;;;17.50;98.70;;;;;;5073903;28;20047;-78
2023/08/01 02:19:13;;;;;;;11.80;5.68;;;17.50;98.70;;;;;;5039623;28;20044;-78
2023/08/01 02:21:39;;;;;;;10.18;5.63;;;17.50;98.70;;;;;;5039680;28;20029;-77
2023/08/01 02:24:04;;;;;;;9.68;5.05;;;17.50;98.80;;;;;;5039527;28;20037;-78
2023/08/01 02:26:30;;;;;;;9.75;4.88;;;17.40;98.80;;;;;;5056044;28;20051;-77
2023/08/01 02:28:56;;;;;;;11.45;5.32;;;17.40;98.90;;;;;;5073560;28;20067;-78
2023/08/01 02:31:22;;;;;;;11.25;5.35;;;17.50;98.90;;;;;;5056003;28;20049;-77
2023/08/01 02:33:47;;;;;;;9.35;5.63;;;17.40;98.90;;;;;;5072352;28;20122;-77
2023/08/01 02:36:13;;;;;;;11.02;5.63;;;17.40;98.90;;;;;;5072548;28;20043;-77
2023/08/01 02:38:39;;;;;;;10.77;5.82;;;17.40;98.90;;;;;;5072552;28;20025;-77
2023/08/01 02:41:04;;;;;;;13.57;6.38;;;17.40;98.80;;;;;;5073361;28;20041;-78
2023/08/01 02:43:30;;;;;;;15.10;5.43;;;17.40;98.80;;;;;;5055716;28;20120;-78
2023/08/01 02:45:56;;;;;;;14.52;5.38;;;17.50;98.80;;;;;;5072290;28;20053;-79
2023/08/01 02:48:21;;;;;;;16.25;6.13;;;17.50;98.80;;;;;;5072284;28;20029;-79
2023/08/01 02:50:47;;;;;;;14.57;5.80;;;17.40;98.70;;;;;;5055551;28;20036;-78
2023/08/01 02:53:13;;;;;;;14.85;6.78;;;17.50;98.60;;;;;;5072266;28;20032;-78
2023/08/01 02:55:39;;;;;;;17.33;5.97;;;17.40;98.60;;;;;;5073185;28;20025;-78
2023/08/01 02:58:04;;;;;;;13.88;5.88;;;17.40;98.60;;;;;;5055558;28;20040;-77
2023/08/01 03:00:31;;;;;;;12.32;6.13;;;17.40;98.60;;;;;;5072249;28;20074;-78
2023/08/01 03:02:57;;;;;;;10.77;5.72;;;17.40;98.60;;;;;;5073135;28;20021;-78
2023/08/01 03:05:22;;;;;;;17.67;6.57;;;17.30;98.60;;;;;;5072150;28;20056;-78
2023/08/01 03:07:48;;;;;;;11.80;6.28;;;17.40;98.60;;;;;;5072225;28;20116;-78
2023/08/01 03:10:14;;;;;;;11.13;5.63;;;17.40;98.60;;;;;;5055531;28;20067;-78
2023/08/01 03:12:40;;;;;;;22.90;6.68;;;17.30;98.60;;;;;;5077349;28;20028;-78
2023/08/01 03:15:08;;;;;;;14.05;6.32;;;17.30;98.70;;;;;;5077230;28;20049;-78
2023/08/01 03:17:34;;;;;;;11.43;6.03;;;17.30;98.80;;;;;;5077219;28;20206;-78
2023/08/01 03:19:59;;;;;;;11.15;5.72;;;17.20;98.80;;;;;;5059617;28;20025;-77
2023/08/01 03:22:25;;;;;;;14.82;6.40;;;17.20;98.90;;;;;;5076197;28;20040;-77
2023/08/01 03:24:51;;;;;;;12.75;6.10;;;17.20;98.80;;;;;;5076094;28;20111;-78
2023/08/01 03:27:16;;;;;;;13.82;6.32;;;17.10;98.80;;;;;;5077067;28;20029;-78
2023/08/01 03:29:42;;;;;;;13.27;6.22;;;17.10;98.90;;;;;;5076919;28;20025;-78
2023/08/01 03:32:08;;;;;;;15.93;6.53;;;17.10;98.90;;;;;;5075884;28;20052;-78
2023/08/01 03:34:33;;;;;;;14.02;6.15;;;17.00;99.00;;;;;;5075679;28;20132;-78
2023/08/01 03:36:59;;;;;;;15.35;6.82;;;17.00;99.00;;;;;;5075845;28;20049;-77
2023/08/01 03:39:24;;;;;;;13.52;6.82;;;16.90;99.10;;;;;;5059098;28;20086;-78
2023/08/01 03:41:50;;;;;;;14.73;6.40;;;16.90;99.20;;;;;;5075758;28;20088;-78
2023/08/01 03:44:17;;;;;;;15.70;6.90;;;16.90;99.40;;;;;;5076674;28;20060;-78
2023/08/01 03:46:43;;;;;;;14.80;6.95;;;16.90;99.40;;;;;;5059163;28;20500;-78
2023/08/01 03:49:09;;;;;;;18.85;7.88;;;16.90;99.40;;;;;;5075710;28;20025;-78
2023/08/01 03:51:34;;;;;;;16.27;7.20;;;16.90;99.40;;;;;;5075430;28;20091;-77
2023/08/01 03:54:00;;;;;;;18.60;7.97;;;16.90;99.90;;;;;;5058889;28;20024;-77
2023/08/01 03:56:27;;;;;;;17.73;8.20;;;16.90;99.50;;;;;;5076430;28;20021;-77
2023/08/01 03:58:53;;;;;;;16.23;8.23;;;16.90;99.50;;;;;;5058997;28;20028;-78
2023/08/01 04:01:20;;;;;;;11.88;6.50;;;16.80;99.60;;;;;;5076371;28;20033;-78
2023/08/01 04:03:46;;;;;;;18.35;8.68;;;16.80;99.60;;;;;;5058828;28;20031;-77
2023/08/01 04:06:15;;;;;;;18.05;8.85;;;16.80;99.70;;;;;;5076221;28;20047;-78
2023/08/01 04:08:40;;;;;;;17.40;8.68;;;16.90;99.70;;;;;;5059100;28;20028;-78
2023/08/01 04:11:06;;;;;;;20.40;8.90;;;16.90;99.70;;;;;;5058489;28;20029;-78
2023/08/01 04:13:32;;;;;;;20.20;9.30;;;16.90;99.60;;;;;;5058558;28;20021;-77
2023/08/01 04:15:57;;;;;;;19.80;9.25;;;16.90;99.70;;;;;;5075073;28;20036;-78
2023/08/01 04:18:23;;;;;;;21.25;9.07;;;16.90;99.60;;;;;;5075049;28;20025;-78
2023/08/01 04:20:48;;;;;;;18.73;8.95;;;17.00;99.60;;;;;;5058340;28;20025;-78
2023/08/01 04:23:14;;;;;;;18.98;9.05;;;17.00;99.50;;;;;;5058187;28;20037;-78
2023/08/01 04:25:41;;;;;;;21.15;9.10;;;16.90;99.50;;;;;;5074908;28;20049;-78
2023/08/01 04:28:06;;;;;;;18.48;8.65;;;16.90;99.60;;;;;;5075848;28;20033;-78
2023/08/01 04:30:33;;;;;;;19.42;8.80;;;16.90;99.60;;;;;;5058163;28;20036;-78
2023/08/01 04:32:58;;;;;;;17.88;8.52;;;17.00;99.60;;;;;;5074722;28;20021;-77
2023/08/01 04:35:24;;;;;;;20.25;9.25;;;17.00;99.60;;;;;;5057903;28;20075;-77
2023/08/01 04:37:50;;;;;;;20.90;9.85;;;17.00;99.60;;;;;;5074765;28;20033;-78
2023/08/01 04:40:16;;;;;;;22.02;10.00;;;16.90;99.70;;;;;;5074683;28;20033;-78
2023/08/01 04:42:41;;;;;;;18.33;9.23;;;17.00;99.60;;;;;;5074672;28;20105;-78
2023/08/01 04:45:07;;;;;;;19.88;9.40;;;17.00;99.70;;;;;;5074632;28;20036;-78
2023/08/01 04:47:33;;;;;;;20.02;10.07;;;17.00;99.60;;;;;;5074534;28;20044;-78
2023/08/01 04:49:58;;;;;;;20.60;9.30;;;17.00;99.60;;;;;;5057757;28;20033;-77
2023/08/01 04:52:24;;;;;;;23.02;9.63;;;16.90;99.70;;;;;;5074414;28;20029;-78
2023/08/01 04:54:50;;;;;;;22.65;10.68;;;16.90;99.70;;;;;;5074482;28;20040;-78
2023/08/01 04:57:15;;;;;;;22.42;10.05;;;16.90;99.80;;;;;;5057724;28;20029;-78
2023/08/01 04:59:41;;;;;;;23.27;9.77;;;16.90;99.70;;;;;;5074365;28;20037;-78
2023/08/01 05:02:06;;;;;;;17.55;9.18;;;17.00;99.90;;;;;;5057507;28;20033;-78
2023/08/01 05:04:32;;;;;;;23.20;10.63;;;16.90;99.90;;;;;;5057664;28;20056;-78
2023/08/01 05:06:58;;;;;;;20.70;9.27;;;17.00;99.80;;;;;;5075220;28;20033;-77
2023/08/01 05:09:23;;;;;;;25.05;10.15;;;17.00;99.80;;;;;;5057502;28;20033;-78
2023/08/01 05:11:49;;;;;;;21.15;9.07;;;17.00;99.80;;;;;;5057262;28;20060;-78
2023/08/01 05:14:14;;;;;;;20.55;9.77;;;17.00;99.90;;;;;;5074025;28;20096;-77
2023/08/01 05:16:40;;;;;;;21.98;9.45;;;17.10;99.90;;;;;;5057287;28;20078;-77
2023/08/01 05:19:05;;;;;;;17.45;9.70;;;17.10;99.90;;;;;;5074882;28;20018;-77
2023/08/01 05:21:31;;;;;;;19.98;9.65;;;17.10;99.90;;;;;;5073823;28;20396;-77
2023/08/01 05:23:57;;;;;;;23.88;9.55;;;17.10;99.90;;;;;;5057255;28;20029;-76
2023/08/01 05:26:22;;;;;;;19.95;9.85;;;17.10;99.90;;;;;;5074755;28;20056;-78
2023/08/01 05:28:48;;;;;;;21.45;10.15;;;17.10;99.70;;;;;;5074669;28;20051;-77
2023/08/01 05:31:14;;;;;;;20.98;9.88;;;17.10;99.90;;;;;;5073633;28;20048;-78
2023/08/01 05:33:39;;;;;;;24.77;11.70;;;17.10;99.70;;;;;;5073014;28;20032;-78
2023/08/01 05:36:05;;;;;;;22.52;9.95;;;17.10;99.60;;;;;;5040330;28;20095;-79
2023/08/01 05:38:30;;;;;;;24.55;10.23;;;17.10;99.70;;;;;;5073803;28;20029;-79
2023/08/01 05:40:56;;;;;;;22.05;10.73;;;17.10;99.70;;;;;;5073580;28;20040;-78
2023/08/01 05:43:21;;;;;;;20.10;9.82;;;17.10;99.70;;;;;;5074596;28;20033;-79
2023/08/01 05:45:47;;;;;;;21.15;9.90;;;17.10;99.40;;;;;;5073563;28;20036;-78
2023/08/01 05:48:13;;;;;;;20.05;10.10;;;17.10;99.60;;;;;;5073329;28;20064;-78
2023/08/01 05:50:39;;;;;;;19.33;9.73;;;17.10;99.70;;;;;;5074198;28;20032;-79
2023/08/01 05:53:05;;;;;;;22.58;9.90;;;17.10;99.70;;;;;;5056706;28;20029;-78
2023/08/01 05:55:30;;;;;;;17.77;9.07;;;17.10;99.60;;;;;;5056738;28;20029;-78
2023/08/01 05:57:56;;;;;;;23.85;10.82;;;17.20;99.80;;;;;;5074118;28;20037;-79
2023/08/01 06:00:22;;;;;;;23.45;10.25;;;17.20;99.70;;;;;;5056605;28;20029;-79
2023/08/01 06:02:48;;;;;;;21.63;10.63;;;17.10;99.40;;;;;;5073222;28;20023;-78
2023/08/01 06:05:13;;;;;;;19.58;10.73;;;17.10;99.70;;;;;;5073199;28;20025;-78
2023/08/01 06:07:39;;;;;;;26.25;10.65;;;17.20;99.80;;;;;;5073020;28;20072;-78
2023/08/01 06:10:05;;;;;;;21.95;10.10;;;17.30;99.90;;;;;;5056203;28;20542;-78
2023/08/01 06:12:31;;;;;;;21.77;10.48;;;17.30;99.90;;;;;;5074015;28;20081;-78
2023/08/01 06:14:56;;;;;;;21.55;10.40;;;17.40;99.80;;;;;;5073801;28;20025;-79
2023/08/01 06:17:22;;;;;;;21.67;9.90;;;17.40;99.60;;;;;;5056133;28;20037;-78
2023/08/01 06:19:49;;;;;;;20.67;9.57;;;17.40;99.60;;;;;;5072758;28;20029;-78
2023/08/01 06:22:15;;;;;;;23.58;10.95;;;17.30;99.60;;;;;;5073735;28;20025;-78
2023/08/01 06:24:41;;;;;;;22.83;10.00;;;17.30;99.60;;;;;;5073692;28;20048;-78
2023/08/01 06:27:06;;;;;;;19.48;9.00;;;17.30;99.20;;;;;;5073636;28;20064;-78
2023/08/01 06:29:32;;;;;;;17.33;9.85;;;17.30;99.30;;;;;;5056079;28;20036;-79
2023/08/01 06:31:57;;;;;;;20.42;8.75;;;17.40;99.20;;;;;;5072612;28;20039;-79
2023/08/01 06:34:24;;;;;;;19.88;9.15;;;17.30;99.00;;;;;;5072389;28;20052;-78
2023/08/01 06:36:50;;;;;;;17.13;8.13;;;17.40;99.10;;;;;;5055970;28;20018;-77
2023/08/01 06:39:16;;;;;;;16.02;8.52;;;17.40;99.20;;;;;;5073452;28;20097;-78
2023/08/01 06:41:41;;;;;;;17.23;8.30;;;17.40;98.90;;;;;;5055758;28;20033;-78
2023/08/01 06:44:07;;;;;;;16.05;8.18;;;17.40;99.10;;;;;;5073381;28;20055;-78
2023/08/01 06:46:32;;;;;;;13.10;6.68;;;17.50;98.80;;;;;;5072494;28;20036;-78
2023/08/01 06:48:58;;;;;;;12.60;6.93;;;17.40;98.50;;;;;;5073281;28;20033;-77
2023/08/01 06:51:24;;;;;;;19.55;7.65;;;17.40;98.70;;;;;;5073232;28;20037;-77
2023/08/01 06:53:49;;;;;;;15.52;6.75;;;17.50;98.70;;;;;;5073235;28;20028;-77
2023/08/01 06:56:15;;;;;;;14.45;7.35;;;17.50;98.50;;;;;;5073228;28;20033;-77
2023/08/01 06:58:40;;;;;;;12.95;7.13;;;17.60;98.70;;;;;;5073222;28;20028;-77
2023/08/01 07:01:06;;;;;;;12.80;6.60;;;17.70;98.70;;;;;;5055557;28;20506;-77
2023/08/01 07:03:32;;;;;;;14.63;6.38;;;17.70;98.50;;;;;;5055597;28;20033;-77
2023/08/01 07:05:57;;;;;;;15.15;6.30;;;17.70;98.30;;;;;;5055503;28;20033;-77
2023/08/01 07:08:23;;;;;;;14.13;6.70;;;17.80;98.00;;;;;;5072082;28;20033;-77
2023/08/01 07:10:50;;;;;;;12.07;6.30;;;17.80;98.00;;;;;;5055441;28;20033;-77
2023/08/01 07:13:16;;;;;;;13.05;6.60;;;17.80;97.80;;;;;;5073213;28;20025;-77
2023/08/01 07:15:42;;;;;;;16.85;6.03;;;17.90;97.90;;;;;;5072015;28;20024;-77
2023/08/01 07:18:08;;;;;;;11.13;5.85;;;17.90;97.40;;;;;;5072129;28;20029;-77
2023/08/01 07:20:33;;;;;;;11.45;5.22;;;17.90;97.40;;;;;;5072067;28;20048;-77
2023/08/01 07:22:59;;;;;;;10.52;5.03;;;17.90;97.10;;;;;;5072967;28;20408;-77
2023/08/01 07:25:25;;;;;;;10.00;4.70;;;17.90;96.80;;;;;;5038818;28;20043;-77
2023/08/01 07:27:50;;;;;;;9.40;4.97;;;17.90;97.10;;;;;;5071945;28;20026;-77
2023/08/01 07:30:16;;;;;;;11.60;5.93;;;18.00;97.30;;;;;;5072860;28;20029;-78
2023/08/01 07:32:43;;;;;;;11.82;5.28;;;18.10;97.70;;;;;;5055251;28;20037;-77
2023/08/01 07:35:09;;;;;;;9.10;4.55;;;18.30;97.10;;;;;;5071555;28;20053;-77
2023/08/01 07:37:34;;;;;;;11.60;4.82;;;18.30;96.80;;;;;;5071972;28;20032;-77
2023/08/01 07:40:00;;;;;;;13.82;4.35;;;18.40;96.60;;;;;;5072799;28;20013;-77
2023/08/01 07:42:25;;;;;;;8.27;4.13;;;18.30;96.20;;;;;;5071772;28;20028;-77
2023/08/01 07:44:51;;;;;;;7.75;4.32;;;18.30;96.30;;;;;;5038760;28;20017;-77
2023/08/01 07:47:17;;;;;;;11.95;4.32;;;18.50;96.60;;;;;;5071738;28;20033;-76
2023/08/01 07:49:42;;;;;;;11.02;4.45;;;18.50;97.00;;;;;;5055077;28;20017;-78
2023/08/01 07:52:08;;;;;;;9.70;4.07;;;18.60;96.10;;;;;;5055000;28;20021;-77
2023/08/01 07:54:34;;;;;;;9.70;3.83;;;18.50;95.60;;;;;;5071671;28;20388;-78
2023/08/01 07:56:59;;;;;;;6.93;3.53;;;18.60;95.80;;;;;;5073060;28;20025;-77
2023/08/01 07:59:25;;;;;;;11.30;3.90;;;18.60;95.40;;;;;;5075519;28;20044;-77
2023/08/01 08:01:51;;;;;;;9.32;3.67;;;18.70;95.80;;;;;;5075392;28;20025;-77
2023/08/01 08:04:16;;;;;;;8.82;4.38;;;18.60;95.60;;;;;;5058744;28;20466;-77
2023/08/01 08:06:42;;;;;;;11.30;4.30;;;18.60;96.00;;;;;;5075319;28;20029;-77
2023/08/01 08:09:08;;;;;;;13.55;5.10;;;18.50;95.80;;;;;;5075286;28;20056;-77
2023/08/01 08:11:33;;;;;;;10.30;5.00;;;18.40;96.10;;;;;;5058447;28;20033;-77
2023/08/01 08:13:59;;;;;;;11.32;5.07;;;18.30;96.50;;;;;;5058514;28;20060;-78
2023/08/01 08:16:25;;;;;;;12.35;4.97;;;18.30;96.40;;;;;;5058488;28;20028;-78
2023/08/01 08:18:51;;;;;;;10.60;4.53;;;18.20;96.70;;;;;;5075014;28;20025;-77
2023/08/01 08:21:17;;;;;;;9.23;5.10;;;18.30;96.80;;;;;;5075059;28;20025;-77
2023/08/01 08:23:42;;;;;;;9.88;4.75;;;18.30;96.90;;;;;;5058428;28;20056;-78
2023/08/01 08:26:08;;;;;;;10.32;4.35;;;18.30;96.90;;;;;;5058284;28;20033;-77
2023/08/01 08:28:34;;;;;;;9.20;4.07;;;18.30;96.80;;;;;;5074838;28;20056;-78
2023/08/01 08:31:04;;;;;;;8.85;3.90;;;18.30;96.70;;;;;;5058254;28;20092;-77
2023/08/01 08:33:30;;;;;;;9.07;4.25;;;18.20;96.70;;;;;;5074738;28;20028;-77
2023/08/01 08:35:56;;;;;;;7.80;4.22;;;18.20;96.70;;;;;;5075430;28;20056;-77
2023/08/01 08:38:21;;;;;;;9.65;4.78;;;18.10;96.80;;;;;;5074712;28;20029;-77
2023/08/01 08:40:57;;;;;;;10.63;4.70;;;18.10;96.90;;;;;;5074754;28;20037;-78
2023/08/01 08:43:23;;;;;;;11.70;4.65;;;18.10;97.10;;;;;;5074540;28;20518;-77
2023/08/01 08:45:51;;;;;;;11.95;4.85;;;18.00;97.10;;;;;;5058044;28;20472;-77
2023/08/01 08:48:21;;;;;;;12.57;5.18;;;18.10;97.30;;;;;;5075497;28;20032;-78
2023/08/01 08:50:47;;;;;;;8.75;4.55;;;18.10;97.40;;;;;;5074465;28;20058;-78
2023/08/01 08:53:14;;;;;;;18.20;6.00;;;18.10;97.50;;;;;;5058000;28;20029;-78
2023/08/01 08:55:40;;;;;;;13.23;5.22;;;18.10;97.70;;;;;;5075434;28;20096;-78
2023/08/01 08:58:06;;;;;;;8.65;5.00;;;18.20;97.70;;;;;;5057662;28;20033;-78
2023/08/01 09:00:32;;;;;;;13.43;5.47;;;18.20;97.80;;;;;;5074446;28;20032;-79
2023/08/01 09:02:58;;;;;;;8.05;4.63;;;18.20;97.90;;;;;;5075271;28;20025;-78
2023/08/01 09:05:28;;;;;;;10.13;4.22;;;18.30;97.90;;;;;;5057640;28;20120;-78
2023/08/01 09:07:56;;;;;;;12.63;4.25;;;18.20;97.70;;;;;;5074668;28;20059;-78
2023/08/01 09:10:22;;;;;;;8.43;4.03;;;18.20;97.70;;;;;;5073845;28;20120;-78
2023/08/01 09:12:48;;;;;;;9.05;4.32;;;18.10;97.80;;;;;;5074143;28;20036;-77
2023/08/01 09:15:14;;;;;;;8.00;4.45;;;18.10;97.80;;;;;;5074999;28;20021;-78
2023/08/01 09:17:51;;;;;;;8.93;3.60;;;17.90;98.20;;;;;;5057488;28;20029;-77
2023/08/01 09:20:17;;;;;;;4.57;2.20;;;17.80;98.60;;;;;;5074924;28;20036;-78
2023/08/01 09:22:44;;;;;;;6.68;2.42;;;17.70;98.00;;;;;;5074881;28;20025;-77
2023/08/01 09:25:11;;;;;;;6.50;2.47;;;17.60;97.70;;;;;;5073820;28;20100;-78
2023/08/01 09:27:36;;;;;;;6.97;2.30;;;17.60;97.90;;;;;;5057265;28;20025;-78
2023/08/01 09:30:13;;;;;;;5.30;2.83;;;17.60;98.20;;;;;;5073656;28;20043;-77
2023/08/01 09:32:59;;;;;;;7.90;2.75;;;17.70;98.40;;;;;;5073726;28;20088;-77
2023/08/01 09:35:25;;;;;;;11.95;3.10;;;17.80;98.80;;;;;;5059356;28;20045;-77
2023/08/01 09:37:50;;;;;;;9.68;3.50;;;17.90;99.10;;;;;;5056960;28;20037;-77
2023/08/01 09:40:16;;;;;;;9.52;3.33;;;17.90;99.00;;;;;;5057024;28;20116;-79
2023/08/01 09:42:44;;;;;;;5.43;2.88;;;17.90;99.10;;;;;;5056850;28;20051;-77
2023/08/01 09:45:17;;;;;;;7.40;3.15;;;17.90;98.60;;;;;;5074416;28;20534;-78
2023/08/01 09:47:43;;;;;;;7.30;3.30;;;17.90;98.40;;;;;;5073472;28;20017;-78
2023/08/01 09:50:20;;;;;;;5.93;2.85;;;17.90;98.10;;;;;;5073348;28;20016;-78
2023/08/01 09:52:52;;;;;;;8.15;2.60;;;17.80;97.70;;;;;;5073319;28;20419;-77
2023/08/01 09:55:32;;;;;;;7.82;2.90;;;17.80;97.90;;;;;;5073337;28;20043;-76
2023/08/01 09:57:59;;;;;;;7.05;2.58;;;17.60;97.90;;;;;;5074263;28;20021;-77
2023/08/01 10:00:29;;;;;;;6.78;2.97;;;17.60;98.10;;;;;;5073321;28;20025;-76
2023/08/01 10:03:02;;;;;;;8.75;2.88;;;17.70;98.40;;;;;;5074154;28;20080;-76
2023/08/01 10:05:34;;;;;;;7.68;3.30;;;17.70;98.40;;;;;;5074252;28;20036;-76
2023/08/01 10:08:00;;;;;;;7.60;3.70;;;17.70;98.50;;;;;;5073040;28;20020;-77
2023/08/01 10:10:27;;;;;;;6.97;3.50;;;17.70;99.00;;;;;;5073925;28;20029;-77
2023/08/01 10:12:54;;;;;;;7.18;3.55;;;17.80;99.20;;;;;;5072926;28;20025;-76
2023/08/01 10:15:20;;;;;;;6.88;3.47;;;17.90;99.50;;;;;;5072831;28;20084;-79
2023/08/01 10:17:46;;;;;;;8.57;3.80;;;18.00;99.30;;;;;;5056252;28;20036;-77
2023/08/01 10:20:12;;;;;;;7.28;3.83;;;18.00;99.10;;;;;;5056336;28;20036;-78
2023/08/01 10:22:39;;;;;;;9.43;3.70;;;18.10;99.00;;;;;;5072831;28;20077;-77
2023/08/01 10:25:06;;;;;;;9.45;3.80;;;18.20;98.80;;;;;;5072670;28;20093;-78
2023/08/01 10:27:35;;;;;;;8.20;3.38;;;18.30;99.10;;;;;;5073713;28;20021;-78
2023/08/01 10:30:03;;;;;;;9.27;3.10;;;18.50;98.90;;;;;;5073558;28;20060;-78
2023/08/01 10:32:34;;;;;;;9.77;2.78;;;18.50;98.30;;;;;;5072808;28;20036;-78
2023/08/01 10:35:00;;;;;;;6.28;3.05;;;18.60;98.90;;;;;;5073358;28;20053;-78
2023/08/01 10:37:26;;;;;;;7.78;2.90;;;18.70;98.20;;;;;;5072519;28;20017;-78
2023/08/01 10:39:59;;;;;;;9.60;3.35;;;18.90;97.90;;;;;;5073515;28;20021;-78
2023/08/01 10:42:25;;;;;;;7.03;2.88;;;19.10;97.90;;;;;;5072440;28;20462;-78
2023/08/01 10:44:51;;;;;;;6.63;2.47;;;19.20;97.40;;;;;;5055726;28;20017;-78
2023/08/01 10:47:29;;;;;;;5.30;2.55;;;19.40;97.10;;;;;;5055762;28;20048;-78
2023/08/01 10:49:54;;;;;;;6.18;2.60;;;19.50;96.60;;;;;;5072563;28;20029;-78
2023/08/01 10:52:28;;;;;;;8.32;3.22;;;19.60;95.50;;;;;;5072307;28;20025;-78
2023/08/01 10:55:01;;;;;;;10.75;3.58;;;19.60;94.90;;;;;;5072322;28;20017;-78
2023/08/01 10:57:28;;;;;;;9.38;3.33;;;19.60;95.00;;;;;;5072237;28;20036;-78
2023/08/01 10:59:58;;;;;;;6.35;2.70;;;19.60;95.00;;;;;;5072233;28;20040;-78
2023/08/01 11:02:26;;;;;;;6.50;2.47;;;19.70;95.00;;;;;;5055745;28;20026;-78
2023/08/01 11:05:00;;;;;;;7.75;2.30;;;19.60;94.80;;;;;;5072158;28;20021;-78
2023/08/01 11:07:26;;;;;;;6.60;3.47;;;19.50;94.20;;;;;;5072180;28;20033;-77
2023/08/01 11:10:08;;;;;;;6.80;2.95;;;19.50;94.10;;;;;;5055702;28;20025;-78
2023/08/01 11:12:42;;;;;;;7.28;2.97;;;19.30;93.90;;;;;;5072344;28;20021;-77
2023/08/01 11:15:10;;;;;;;6.10;2.95;;;19.10;94.70;;;;;;5072049;28;20032;-78
2023/08/01 11:17:37;;;;;;;6.53;2.58;;;19.10;94.60;;;;;;5073061;28;20138;-78
2023/08/01 11:20:11;;;;;;;8.30;2.58;;;19.10;94.50;;;;;;5073021;28;20021;-78
2023/08/01 11:22:49;;;;;;;7.00;2.45;;;19.20;94.80;;;;;;5072049;28;20017;-78
2023/08/01 11:25:15;;;;;;;4.22;2.00;;;19.30;93.70;;;;;;5072916;28;20025;-78
2023/08/01 11:27:41;;;;;;;9.57;2.65;;;19.40;93.90;;;;;;5072907;28;20507;-78
2023/08/01 11:30:07;;;;;;;6.95;2.30;;;19.50;93.60;;;;;;5055345;28;20029;-78
2023/08/01 11:32:38;;;;;;;6.13;2.50;;;19.70;92.80;;;;;;5074417;28;20573;-78
2023/08/01 11:35:04;;;;;;;4.80;2.17;;;19.80;93.20;;;;;;5076704;28;20088;-78
2023/08/01 11:37:30;;;;;;;6.35;2.30;;;20.00;93.50;;;;;;5076867;28;20025;-78
2023/08/01 11:39:57;;;;;;;5.75;2.45;;;20.20;92.90;;;;;;5076757;28;20029;-78
2023/08/01 11:42:23;;;;;;;6.93;2.53;;;20.30;93.00;;;;;;5075846;28;20029;-78
2023/08/01 11:44:48;;;;;;;7.38;2.53;;;20.30;91.80;;;;;;5059113;28;20039;-78
2023/08/01 11:47:15;;;;;;;5.28;2.03;;;20.30;91.80;;;;;;5075816;28;20028;-78
2023/08/01 11:49:49;;;;;;;5.63;1.77;;;20.30;90.90;;;;;;5058933;28;20040;-78
2023/08/01 11:52:25;;;;;;;6.65;2.30;;;20.20;87.80;;;;;;5076534;28;20033;-77
2023/08/01 11:54:51;;;;;;;7.25;2.13;;;20.20;90.20;;;;;;5076532;28;20025;-78
2023/08/01 11:57:17;;;;;;;5.70;2.13;;;20.20;90.70;;;;;;5075558;28;20025;-78
2023/08/01 11:59:50;;;;;;;6.28;2.25;;;20.30;90.70;;;;;;5075392;28;20048;-77
2023/08/01 12:02:27;;;;;;;4.70;2.15;;;20.30;90.90;;;;;;5075613;28;20064;-79
2023/08/01 12:04:54;;;;;;;3.83;1.90;;;20.30;90.30;;;;;;5076431;28;20021;-79
2023/08/01 12:07:20;;;;;;;6.75;2.20;;;20.40;91.10;;;;;;5075301;28;20027;-78
2023/08/01 12:10:00;;;;;;;4.72;2.10;;;20.50;90.20;;;;;;5076191;28;20040;-77
2023/08/01 12:12:29;;;;;;;3.83;1.60;;;20.40;88.70;;;;;;5075206;28;20364;-77
2023/08/01 12:14:55;;;;;;;8.50;1.83;;;20.30;87.80;;;;;;5076173;28;20025;-77
2023/08/01 12:17:21;;;;;;;5.80;1.60;;;20.30;87.80;;;;;;5076140;28;20025;-80
2023/08/01 12:19:47;;;;;;;4.55;2.05;;;20.30;86.80;;;;;;5075128;28;20017;-80
2023/08/01 12:22:14;;;;;;;6.25;1.70;;;20.20;87.50;;;;;;5076006;28;20032;-78
2023/08/01 12:24:40;;;;;;;4.50;1.85;;;20.30;87.30;;;;;;5076043;28;20029;-79
2023/08/01 12:27:09;;;;;;;2.53;1.50;;;20.30;89.00;;;;;;5058351;28;20043;-78
2023/08/01 12:29:35;;;;;;;2.53;1.50;;;20.30;90.10;;;;;;5074857;28;20032;-78
2023/08/01 12:32:02;;;;;;;5.90;2.00;;;20.40;90.40;;;;;;5074783;28;20024;-78
2023/08/01 12:34:28;;;;;;;7.68;2.05;;;20.50;90.80;;;;;;5074603;28;20095;-78
2023/08/01 12:36:54;;;;;;;3.17;1.40;;;20.70;90.40;;;;;;5075081;28;20033;-78